Terminal Aerodrome Forecast
Issued by NWS

Home | Current Version | Previous Version | Text Only | Print | Product List | Glossary On
Versions: 1 2 3 4 5 6 7 8 9 10 11 12 13 14 15 16 17 18 19 20 21 22 23 24 25 26 27 28 29 30 31 32 33 34
000
FTAK31 PAFA 251238 CCA
TAFASC
TAF COR
PASC 251238Z 2513/2612 23016KT 6SM -SN BKN040 OVC070
      TEMPO 2513/2514 4SM -SN BR=

USA.gov is the U.S. government's official web portal to all federal, state and local government web resources and services.